KPF62E LOWS-LOWI
Flight info
| Callsign | KPF62E |
|---|---|
| Flight time | 0h 22m |
| Altitude | 12000 |
| Route | RTT RTT1B |
| Aircraft | CL60/M-SBDE1E2E3FGHIJ1J4J5J7M3RWXYZ/LB1V1D1 |
Departure
| Time | 2026-05-04 11:53 |
|---|---|
| Airport | Salzburg Airport (LOWS) |
Arrival
| Time | 2026-05-04 12:15 |
|---|---|
| Airport | Innsbruck Airport (LOWI) |
| Time | Latitude | Longitude | Altitude | Speed | Heading |
|---|---|---|---|---|---|
| 2026-05-04 11:24 | 47.79598 | 12.99881 | 1418 ft | 0 kts | 246° |
| 2026-05-04 11:47 | 47.79597 | 12.99876 | 1418 ft | 2 kts | 246° |
| 2026-05-04 11:47 | 47.79586 | 12.99841 | 1418 ft | 0 kts | 243° |
| 2026-05-04 11:47 | 47.79586 | 12.99840 | 1418 ft | 0 kts | 237° |
| 2026-05-04 11:47 | 47.79552 | 12.99868 | 1418 ft | 9 kts | 126° |
| 2026-05-04 11:48 | 47.79562 | 12.99967 | 1418 ft | 8 kts | 106° |
| 2026-05-04 11:48 | 47.79507 | 13.00015 | 1418 ft | 12 kts | 156° |
| 2026-05-04 11:48 | 47.79404 | 13.00082 | 1418 ft | 17 kts | 155° |
| 2026-05-04 11:48 | 47.79295 | 13.00148 | 1418 ft | 16 kts | 156° |
| 2026-05-04 11:49 | 47.79185 | 13.00217 | 1418 ft | 16 kts | 158° |
| 2026-05-04 11:49 | 47.79079 | 13.00286 | 1418 ft | 16 kts | 158° |
| 2026-05-04 11:49 | 47.78972 | 13.00355 | 1418 ft | 16 kts | 155° |
| 2026-05-04 11:49 | 47.78863 | 13.00419 | 1419 ft | 16 kts | 161° |
| 2026-05-04 11:50 | 47.78757 | 13.00487 | 1418 ft | 16 kts | 154° |
| 2026-05-04 11:50 | 47.78651 | 13.00560 | 1418 ft | 16 kts | 159° |
| 2026-05-04 11:50 | 47.78541 | 13.00627 | 1419 ft | 16 kts | 155° |
| 2026-05-04 11:50 | 47.78435 | 13.00697 | 1419 ft | 16 kts | 157° |
| 2026-05-04 11:51 | 47.78327 | 13.00767 | 1419 ft | 16 kts | 156° |
| 2026-05-04 11:51 | 47.78226 | 13.00835 | 1419 ft | 13 kts | 139° |
| 2026-05-04 11:51 | 47.78186 | 13.00907 | 1419 ft | 3 kts | 112° |
| 2026-05-04 11:51 | 47.78184 | 13.00976 | 1419 ft | 12 kts | 78° |
| 2026-05-04 11:52 | 47.78204 | 13.01050 | 1419 ft | 6 kts | 66° |
| 2026-05-04 11:52 | 47.78241 | 13.01083 | 1419 ft | 2 kts | 338° |
| 2026-05-04 11:52 | 47.78268 | 13.01065 | 1419 ft | 26 kts | 337° |
| 2026-05-04 11:52 | 47.78804 | 13.00729 | 1419 ft | 138 kts | 336° |
| 2026-05-04 11:53 | 47.79862 | 13.00016 | 2016 ft | 182 kts | 334° |
| 2026-05-04 11:53 | 47.80970 | 12.99122 | 3210 ft | 195 kts | 335° |
| 2026-05-04 11:53 | 47.82220 | 12.98131 | 4241 ft | 216 kts | 328° |
| 2026-05-04 11:53 | 47.83268 | 12.96510 | 5369 ft | 231 kts | 303° |
| 2026-05-04 11:55 | 47.89954 | 12.77323 | 11937 ft | 360 kts | 277° |
| 2026-05-04 11:55 | 47.89887 | 12.73644 | 11975 ft | 354 kts | 256° |
| 2026-05-04 11:56 | 47.88943 | 12.70323 | 11982 ft | 348 kts | 236° |
| 2026-05-04 11:56 | 47.87412 | 12.67536 | 11970 ft | 347 kts | 227° |
| 2026-05-04 11:56 | 47.85793 | 12.64830 | 11983 ft | 347 kts | 227° |
| 2026-05-04 11:56 | 47.84203 | 12.62161 | 12004 ft | 347 kts | 227° |
| 2026-05-04 11:57 | 47.82585 | 12.59447 | 12011 ft | 347 kts | 227° |
| 2026-05-04 11:57 | 47.80972 | 12.56745 | 12047 ft | 347 kts | 227° |
| 2026-05-04 11:57 | 47.79375 | 12.54072 | 12030 ft | 348 kts | 227° |
| 2026-05-04 11:57 | 47.77748 | 12.51351 | 12029 ft | 347 kts | 227° |
| 2026-05-04 11:58 | 47.76136 | 12.48656 | 12074 ft | 348 kts | 227° |
| 2026-05-04 11:58 | 47.74528 | 12.45972 | 12054 ft | 349 kts | 227° |
| 2026-05-04 11:58 | 47.72914 | 12.43279 | 12033 ft | 347 kts | 227° |
| 2026-05-04 11:58 | 47.71310 | 12.40607 | 12042 ft | 347 kts | 227° |
| 2026-05-04 11:59 | 47.69685 | 12.37902 | 12039 ft | 347 kts | 227° |
| 2026-05-04 11:59 | 47.68085 | 12.35241 | 12038 ft | 347 kts | 227° |
| 2026-05-04 11:59 | 47.66487 | 12.32586 | 12052 ft | 347 kts | 227° |
| 2026-05-04 11:59 | 47.64858 | 12.29883 | 12067 ft | 347 kts | 226° |
| 2026-05-04 12:00 | 47.63250 | 12.27216 | 12068 ft | 347 kts | 227° |
| 2026-05-04 12:00 | 47.61634 | 12.24540 | 12081 ft | 347 kts | 226° |
| 2026-05-04 12:00 | 47.60026 | 12.21879 | 12064 ft | 347 kts | 226° |
| 2026-05-04 12:00 | 47.58471 | 12.19307 | 12085 ft | 346 kts | 226° |
| 2026-05-04 12:01 | 47.57155 | 12.17133 | 12092 ft | 347 kts | 226° |
| 2026-05-04 12:01 | 47.55544 | 12.14476 | 12080 ft | 347 kts | 227° |
| 2026-05-04 12:02 | 47.46137 | 11.98995 | 12099 ft | 318 kts | 226° |
| 2026-05-04 12:03 | 47.45157 | 11.97385 | 12101 ft | 303 kts | 226° |
| 2026-05-04 12:03 | 47.43774 | 11.95115 | 11894 ft | 292 kts | 226° |
| 2026-05-04 12:03 | 47.42249 | 11.93194 | 11524 ft | 285 kts | 211° |
| 2026-05-04 12:03 | 47.40554 | 11.91708 | 11102 ft | 278 kts | 210° |
| 2026-05-04 12:04 | 47.38913 | 11.90268 | 10810 ft | 265 kts | 210° |
| 2026-05-04 12:04 | 47.37338 | 11.88884 | 10455 ft | 256 kts | 210° |
| 2026-05-04 12:04 | 47.36224 | 11.87906 | 10248 ft | 249 kts | 210° |
| 2026-05-04 12:04 | 47.34744 | 11.86606 | 9924 ft | 242 kts | 210° |
| 2026-05-04 12:05 | 47.33495 | 11.85032 | 9712 ft | 239 kts | 233° |
| 2026-05-04 12:05 | 47.32856 | 11.82828 | 9654 ft | 232 kts | 253° |
| 2026-05-04 12:05 | 47.32510 | 11.80431 | 9305 ft | 244 kts | 257° |
| 2026-05-04 12:05 | 47.32187 | 11.77962 | 8957 ft | 244 kts | 256° |
| 2026-05-04 12:06 | 47.31847 | 11.75501 | 8569 ft | 245 kts | 256° |
| 2026-05-04 12:06 | 47.31496 | 11.73028 | 8164 ft | 248 kts | 256° |
| 2026-05-04 12:06 | 47.31139 | 11.70526 | 7738 ft | 250 kts | 256° |
| 2026-05-04 12:06 | 47.30777 | 11.68003 | 7310 ft | 251 kts | 256° |
| 2026-05-04 12:07 | 47.30415 | 11.65474 | 6880 ft | 253 kts | 257° |
| 2026-05-04 12:07 | 47.30052 | 11.62952 | 6455 ft | 254 kts | 256° |
| 2026-05-04 12:07 | 47.29685 | 11.60401 | 6037 ft | 249 kts | 257° |
| 2026-05-04 12:07 | 47.29335 | 11.57957 | 5615 ft | 237 kts | 257° |
| 2026-05-04 12:08 | 47.29001 | 11.55645 | 5236 ft | 227 kts | 256° |
| 2026-05-04 12:08 | 47.28678 | 11.53410 | 4862 ft | 218 kts | 256° |
| 2026-05-04 12:08 | 47.28364 | 11.51245 | 4505 ft | 211 kts | 256° |
| 2026-05-04 12:08 | 47.28062 | 11.49163 | 4160 ft | 204 kts | 256° |
| 2026-05-04 12:09 | 47.27769 | 11.47152 | 3836 ft | 199 kts | 256° |
| 2026-05-04 12:09 | 47.27479 | 11.45213 | 3667 ft | 183 kts | 254° |
| 2026-05-04 12:09 | 47.27206 | 11.43483 | 3636 ft | 164 kts | 255° |
| 2026-05-04 12:09 | 47.26796 | 11.41978 | 3628 ft | 150 kts | 237° |
| 2026-05-04 12:10 | 47.26255 | 11.40633 | 3784 ft | 154 kts | 236° |
| 2026-05-04 12:10 | 47.25668 | 11.39265 | 3840 ft | 156 kts | 233° |
| 2026-05-04 12:10 | 47.25058 | 11.37955 | 3819 ft | 153 kts | 232° |
| 2026-05-04 12:10 | 47.24424 | 11.36702 | 3828 ft | 152 kts | 226° |
| 2026-05-04 12:11 | 47.23864 | 11.35360 | 3837 ft | 155 kts | 247° |
| 2026-05-04 12:11 | 47.23629 | 11.33804 | 3834 ft | 157 kts | 261° |
| 2026-05-04 12:11 | 47.23568 | 11.32193 | 3841 ft | 158 kts | 265° |
| 2026-05-04 12:11 | 47.23511 | 11.30560 | 3891 ft | 155 kts | 263° |
| 2026-05-04 12:12 | 47.23475 | 11.29026 | 3975 ft | 150 kts | 265° |
| 2026-05-04 12:12 | 47.23440 | 11.27828 | 4050 ft | 149 kts | 264° |
| 2026-05-04 12:12 | 47.23438 | 11.26400 | 4015 ft | 150 kts | 271° |
| 2026-05-04 12:12 | 47.23832 | 11.24967 | 3807 ft | 153 kts | 317° |
| 2026-05-04 12:13 | 47.24799 | 11.24558 | 3408 ft | 158 kts | 11° |
| 2026-05-04 12:14 | 47.25871 | 11.32920 | 2027 ft | 127 kts | 89° |
| 2026-05-04 12:15 | 47.25992 | 11.34077 | 1932 ft | 102 kts | 88° |
| 2026-05-04 12:15 | 47.26080 | 11.34904 | 1927 ft | 47 kts | 79° |
| 2026-05-04 12:15 | 47.26110 | 11.35196 | 1925 ft | 12 kts | 82° |
| 2026-05-04 12:15 | 47.26043 | 11.35255 | 1925 ft | 14 kts | 170° |
| 2026-05-04 12:16 | 47.25989 | 11.35268 | 1925 ft | 4 kts | 169° |
| 2026-05-04 12:16 | 47.25946 | 11.35279 | 1925 ft | 7 kts | 167° |
| 2026-05-04 12:16 | 47.25931 | 11.35313 | 1926 ft | 2 kts | 94° |
| 2026-05-04 12:16 | 47.25927 | 11.35350 | 1926 ft | 4 kts | 127° |
| 2026-05-04 12:17 | 47.25909 | 11.35342 | 1926 ft | 1 kts | 266° |
| 2026-05-04 12:17 | 47.25910 | 11.35337 | 1926 ft | 0 kts | 274° |